メインページ
METAR-TAF:

METAR-TAF

空港 :

スレイマニヤ, イラク

緯度: 35-33-39N, 経度: 45-18-52E, 海抜: 760m

現時点の気象観測

当レポートは1時間2分前の14:00(UTC)に作成
南東の風 4kt
気温 22°C
湿度 41%
気圧 1012 hPa
視程10km以上
高度4500ftの雲はほとんどない

METAR: ORSU 141400Z 14004KT 9999 FEW045 22/08 Q1012

時間: 18:02 (15:02 UTC)

予報

当レポートは4時間2分前の11:00(UTC)に作成
予報は14日の 12時(UTC)から 15日の 12時(UTC)まで有効
南/南東の風 6kt
視程10km以上
1,500メートル以下は雲なし、積乱雲なし
15日の 07時(UTC)から 15日の 09時(UTC)まで徐々に
西/南西の風 10kt
視程10km以上
高度4500ftの雲は散在している
高度10000ftの雲は散在している

TAF: ORSU 141100Z 1412/1512 16006KT CAVOK BECMG 1507/1509 24010KT 9999 SCT045 SCT100

4,000以上の空港の気象観測と天気予報(METAR報とTAF報)

利用可能な観測所は地図上に黄色い丸と赤い丸で示す。

丸の上にカーソルを重ねると観測所名を参照できる。

次にクリックすると気象観測と天気予報を参照できる。

マップの切り替え:黒色「×」印の緑ボタンをクリックして拡大、「-」印の緑ボタンをクリックして縮小、緑色の三角印をクリックして隣りの地図に切り替え


METAR-TAF: